createdAt,value
2019-02-18T00:00:46.325Z,0.60
2019-02-18T00:03:33.011Z,0.73
2019-02-18T00:05:47.561Z,0.93
2019-02-18T00:08:01.338Z,0.90
2019-02-18T00:10:35.608Z,0.50
2019-02-18T00:12:49.758Z,0.70
2019-02-18T00:15:13.489Z,0.50
2019-02-18T00:17:38.170Z,0.50
2019-02-18T00:19:43.415Z,0.70
2019-02-18T00:21:59.555Z,0.57
2019-02-18T00:24:07.023Z,0.60
2019-02-18T00:26:27.287Z,0.87
2019-02-18T00:34:00.553Z,0.53
2019-02-18T00:36:20.046Z,0.70
2019-02-18T00:38:50.596Z,0.60
2019-02-18T00:43:41.734Z,0.70
2019-02-18T00:45:48.967Z,1.23
2019-02-18T00:47:56.410Z,0.60
2019-02-18T00:50:03.580Z,0.83
2019-02-18T00:52:15.711Z,0.57
2019-02-18T00:54:23.072Z,0.60
2019-02-18T00:56:30.656Z,0.60
2019-02-18T00:58:38.471Z,0.40
2019-02-18T01:00:45.672Z,0.60
2019-02-18T01:02:53.860Z,0.70
2019-02-18T01:05:03.340Z,0.57
2019-02-18T01:07:10.369Z,0.53
2019-02-18T01:09:17.787Z,0.67
2019-02-18T01:11:24.893Z,0.60
2019-02-18T01:13:32.273Z,0.60
2019-02-18T01:16:00.046Z,0.60
2019-02-18T01:18:07.494Z,0.70
2019-02-18T01:20:15.137Z,0.50
2019-02-18T01:22:23.701Z,0.70
2019-02-18T01:24:31.031Z,0.50
2019-02-18T01:26:38.444Z,0.57
2019-02-18T01:28:45.732Z,0.70
2019-02-18T01:30:52.789Z,0.60
2019-02-18T01:33:00.054Z,0.50
2019-02-18T01:35:09.089Z,0.90
2019-02-18T01:37:16.487Z,0.77
2019-02-18T01:39:23.417Z,0.70
2019-02-18T01:41:30.728Z,0.60
2019-02-18T01:43:42.481Z,0.50
2019-02-18T01:45:50.720Z,0.50
2019-02-18T01:48:05.508Z,0.53
2019-02-18T01:50:15.845Z,0.83
2019-02-18T01:52:23.095Z,1.23
2019-02-18T01:54:33.946Z,2.30
2019-02-18T01:56:48.364Z,1.80
2019-02-18T01:58:55.679Z,1.90
2019-02-18T02:01:03.506Z,2.20
2019-02-18T02:03:10.693Z,1.77
2019-02-18T02:05:18.190Z,1.90
2019-02-18T02:07:25.477Z,1.60
2019-02-18T02:09:33.469Z,1.70
2019-02-18T02:11:40.741Z,1.40
2019-02-18T02:13:48.528Z,1.20
2019-02-18T02:15:55.961Z,1.10
2019-02-18T02:18:03.097Z,1.20
2019-02-18T02:20:10.535Z,1.00
2019-02-18T02:22:17.745Z,1.20
2019-02-18T02:24:25.187Z,0.90
2019-02-18T02:26:33.404Z,1.10
2019-02-18T02:28:41.205Z,0.90
2019-02-18T02:30:50.071Z,0.90
2019-02-18T02:32:57.602Z,0.80
2019-02-18T02:35:08.058Z,0.87
2019-02-18T02:37:17.484Z,0.70
2019-02-18T02:39:28.336Z,0.80
2019-02-18T02:41:36.692Z,0.73
2019-02-18T02:43:45.935Z,0.80
2019-02-18T02:45:53.472Z,0.87
2019-02-18T02:48:00.892Z,0.70
2019-02-18T02:50:11.123Z,0.90
2019-02-18T02:52:21.832Z,0.80
2019-02-18T02:54:29.612Z,0.80
2019-02-18T02:56:37.437Z,0.80
2019-02-18T02:58:45.100Z,0.87
2019-02-18T03:03:05.252Z,0.87
2019-02-18T03:05:12.836Z,0.70
2019-02-18T03:07:20.115Z,0.70
2019-02-18T03:09:29.081Z,0.80
2019-02-18T03:11:36.867Z,0.80
2019-02-18T03:13:47.139Z,0.70
2019-02-18T03:15:55.119Z,0.70
2019-02-18T03:18:03.079Z,0.83
2019-02-18T03:20:10.476Z,1.00
2019-02-18T03:22:17.561Z,1.00
2019-02-18T03:24:24.673Z,0.70
2019-02-18T03:26:32.071Z,0.80
2019-02-18T03:29:32.795Z,0.97
2019-02-18T03:31:39.922Z,1.10
2019-02-18T03:33:51.164Z,1.00
2019-02-18T03:35:59.052Z,0.83
2019-02-18T03:38:07.243Z,0.77
2019-02-18T03:40:14.685Z,0.67
2019-02-18T03:42:22.582Z,0.80
2019-02-18T03:44:29.879Z,0.50
2019-02-18T03:46:37.197Z,0.87
2019-02-18T03:48:44.302Z,0.70
2019-02-18T03:50:53.785Z,0.70
2019-02-18T03:53:01.545Z,0.70
2019-02-18T03:55:09.721Z,0.70
2019-02-18T03:57:17.643Z,0.60
2019-02-18T03:59:24.848Z,0.60
2019-02-18T04:01:32.055Z,0.77
2019-02-18T04:03:41.611Z,0.70
2019-02-18T04:05:49.642Z,0.63
2019-02-18T04:07:57.021Z,0.73
2019-02-18T04:10:04.254Z,0.60
2019-02-18T04:12:11.603Z,0.50
2019-02-18T04:14:19.438Z,0.70
2019-02-18T04:16:26.848Z,0.50
2019-02-18T04:18:34.894Z,0.60
2019-02-18T04:20:42.199Z,0.60
2019-02-18T04:22:49.947Z,0.80
2019-02-18T04:24:57.965Z,0.70
2019-02-18T04:27:06.433Z,0.60
2019-02-18T04:29:14.645Z,0.70
2019-02-18T04:31:22.563Z,0.70
2019-02-18T04:33:29.759Z,0.80
2019-02-18T04:35:37.291Z,0.60
2019-02-18T04:37:44.314Z,0.67
2019-02-18T04:39:51.724Z,0.60
2019-02-18T04:41:59.169Z,0.57
2019-02-18T04:44:06.300Z,0.70
2019-02-18T04:46:13.773Z,0.67
2019-02-18T04:48:21.994Z,0.50
2019-02-18T04:50:29.127Z,0.60
2019-02-18T04:52:36.460Z,0.50
2019-02-18T04:54:43.714Z,0.60
2019-02-18T04:56:51.367Z,0.70
2019-02-18T04:58:58.560Z,0.60
2019-02-18T05:01:06.445Z,0.70
2019-02-18T05:03:13.671Z,0.60
2019-02-18T05:05:20.877Z,0.47
2019-02-18T05:07:28.164Z,0.60
2019-02-18T05:09:35.340Z,0.70
2019-02-18T05:11:43.402Z,0.53
2019-02-18T05:13:50.798Z,0.63
2019-02-18T05:15:58.251Z,0.50
2019-02-18T05:18:05.754Z,0.50
2019-02-18T05:20:13.917Z,0.50
2019-02-18T05:22:21.489Z,0.40
2019-02-18T05:24:28.731Z,0.40
2019-02-18T05:26:35.590Z,0.40
2019-02-18T05:28:42.802Z,0.50
2019-02-18T05:30:58.333Z,0.50
2019-02-18T05:33:05.415Z,0.50
2019-02-18T05:35:13.592Z,0.50
2019-02-18T05:37:20.783Z,0.60
2019-02-18T05:39:29.282Z,0.50
2019-02-18T05:41:36.461Z,0.50
2019-02-18T05:43:44.046Z,0.50
2019-02-18T05:45:51.214Z,0.53
2019-02-18T05:47:58.521Z,0.40
2019-02-18T05:50:05.816Z,0.53
2019-02-18T05:52:13.218Z,0.50
2019-02-18T05:54:20.608Z,0.60
2019-02-18T05:56:28.183Z,0.50
2019-02-18T05:58:35.397Z,0.60
2019-02-18T06:00:42.738Z,0.50
2019-02-18T06:02:50.611Z,0.60
2019-02-18T06:04:58.413Z,0.60
2019-02-18T06:07:05.719Z,0.57
2019-02-18T06:09:13.657Z,0.50
2019-02-18T06:11:21.010Z,0.50
2019-02-18T06:13:28.319Z,0.50
2019-02-18T06:15:36.110Z,0.57
2019-02-18T06:17:43.118Z,0.50
2019-02-18T06:19:51.512Z,0.50
2019-02-18T06:21:58.765Z,0.43
2019-02-18T06:24:05.857Z,0.63
2019-02-18T06:26:13.244Z,0.50
2019-02-18T06:28:20.619Z,0.93
2019-02-18T06:30:27.778Z,0.50
2019-02-18T06:32:35.028Z,0.40
2019-02-18T06:34:42.841Z,0.40
2019-02-18T06:36:50.170Z,0.30
2019-02-18T06:38:57.894Z,0.40
2019-02-18T06:41:05.351Z,0.50
2019-02-18T06:43:12.627Z,0.50
2019-02-18T06:45:38.989Z,0.40
2019-02-18T06:47:46.506Z,0.50
2019-02-18T06:49:53.987Z,0.40
2019-02-18T06:52:01.371Z,0.40
2019-02-18T06:54:09.484Z,0.47
2019-02-18T06:56:20.177Z,0.50
2019-02-18T06:58:46.999Z,0.50
2019-02-18T07:01:13.163Z,0.50
2019-02-18T07:03:38.902Z,0.50
2019-02-18T07:06:08.311Z,0.60
2019-02-18T07:08:34.139Z,0.97
2019-02-18T07:10:58.523Z,0.50
2019-02-18T07:13:07.041Z,0.40
2019-02-18T07:15:16.098Z,0.47
2019-02-18T07:17:24.944Z,0.50
2019-02-18T07:19:33.127Z,0.40
2019-02-18T07:21:42.023Z,0.40
2019-02-18T07:23:49.529Z,0.40
2019-02-18T07:25:58.201Z,0.50
2019-02-18T07:28:07.791Z,0.40
2019-02-18T07:30:17.403Z,0.50
2019-02-18T07:32:25.332Z,0.40
2019-02-18T07:34:32.917Z,0.40
2019-02-18T07:36:40.406Z,0.80
2019-02-18T07:38:47.745Z,0.50
2019-02-18T07:40:55.900Z,0.50
2019-02-18T07:43:03.137Z,0.50
2019-02-18T07:45:10.880Z,0.40
2019-02-18T07:47:19.066Z,0.40
2019-02-18T07:49:26.432Z,0.50
2019-02-18T07:51:33.686Z,0.30
2019-02-18T07:53:40.873Z,0.40
2019-02-18T07:55:47.993Z,0.60
2019-02-18T07:57:55.465Z,0.50
2019-02-18T08:00:03.268Z,0.40
2019-02-18T08:02:10.585Z,0.40
2019-02-18T08:04:18.455Z,0.30
2019-02-18T08:06:25.734Z,0.50
2019-02-18T08:08:33.130Z,0.40
2019-02-18T08:10:40.854Z,0.40
2019-02-18T08:12:47.804Z,0.43
2019-02-18T08:14:55.184Z,0.40
2019-02-18T08:17:02.460Z,0.60
2019-02-18T08:19:10.524Z,0.40
2019-02-18T08:21:18.388Z,0.50
2019-02-18T08:23:25.650Z,0.50
2019-02-18T08:25:33.723Z,0.57
2019-02-18T08:27:41.654Z,0.40
2019-02-18T08:29:48.721Z,0.40
2019-02-18T08:31:55.840Z,0.30
2019-02-18T08:34:03.218Z,0.30
2019-02-18T08:36:10.759Z,0.40
2019-02-18T08:38:17.765Z,0.40
2019-02-18T08:40:25.141Z,0.47
2019-02-18T08:42:34.271Z,0.37
2019-02-18T08:44:41.734Z,0.50
2019-02-18T08:46:48.856Z,0.40
2019-02-18T08:48:56.144Z,0.40
2019-02-18T08:51:03.491Z,0.40
2019-02-18T08:53:10.827Z,0.37
2019-02-18T08:55:17.851Z,0.30
2019-02-18T08:57:25.125Z,0.40
2019-02-18T08:59:33.121Z,0.40
2019-02-18T09:01:40.369Z,0.33
2019-02-18T09:03:47.793Z,0.40
2019-02-18T09:05:55.685Z,0.40
2019-02-18T09:08:02.865Z,0.40
2019-02-18T09:10:10.577Z,0.40
2019-02-18T09:12:17.913Z,0.50
2019-02-18T09:14:25.149Z,0.50
2019-02-18T09:16:32.128Z,0.40
2019-02-18T09:18:39.326Z,0.40
2019-02-18T09:20:46.535Z,0.50
2019-02-18T09:23:12.665Z,0.40
2019-02-18T09:25:22.566Z,0.30
2019-02-18T09:27:29.909Z,0.50
2019-02-18T09:29:37.272Z,0.30
2019-02-18T09:31:44.387Z,0.33
2019-02-18T09:34:00.569Z,0.50
2019-02-18T09:36:08.028Z,0.37
2019-02-18T09:38:24.314Z,0.47
2019-02-18T09:40:24.051Z,0.30
2019-02-18T09:42:31.411Z,0.30
2019-02-18T09:44:39.540Z,0.30
2019-02-18T09:46:46.768Z,0.43
2019-02-18T09:48:54.052Z,0.40
2019-02-18T09:51:01.605Z,0.40
2019-02-18T09:53:09.040Z,0.40
2019-02-18T09:55:16.158Z,0.40
2019-02-18T09:57:23.530Z,0.40
2019-02-18T09:59:30.841Z,0.47
2019-02-18T10:01:38.164Z,0.30
2019-02-18T10:03:45.306Z,0.30
2019-02-18T10:05:53.242Z,0.40
2019-02-18T10:08:00.256Z,0.40
2019-02-18T10:10:07.523Z,0.40
2019-02-18T10:12:18.437Z,0.40
2019-02-18T10:14:23.842Z,0.30
2019-02-18T10:16:31.589Z,0.40
2019-02-18T10:18:38.676Z,0.30
2019-02-18T10:20:45.736Z,0.40
2019-02-18T10:22:53.140Z,0.30
2019-02-18T10:25:00.387Z,0.40
2019-02-18T10:27:07.618Z,0.40
2019-02-18T10:29:15.661Z,0.40
2019-02-18T10:31:23.399Z,0.40
2019-02-18T10:33:30.683Z,0.30
2019-02-18T10:35:38.008Z,0.30
2019-02-18T10:37:54.648Z,0.30
2019-02-18T10:39:54.278Z,0.40
2019-02-18T10:42:01.691Z,0.40
2019-02-18T10:44:08.863Z,0.30
2019-02-18T10:46:16.061Z,0.30
2019-02-18T10:48:23.420Z,0.40
2019-02-18T10:50:31.458Z,0.40
2019-02-18T10:52:39.300Z,0.40
2019-02-18T10:54:46.482Z,0.40
2019-02-18T10:56:53.902Z,0.40
2019-02-18T10:59:00.968Z,0.30
2019-02-18T11:01:08.468Z,0.40
2019-02-18T11:03:15.615Z,0.33
2019-02-18T11:05:23.386Z,0.47
2019-02-18T11:07:30.687Z,0.33
2019-02-18T11:09:38.644Z,0.30
2019-02-18T11:11:45.985Z,0.40
2019-02-18T11:13:53.260Z,0.40
2019-02-18T11:16:00.454Z,0.37
2019-02-18T11:18:07.707Z,0.40
2019-02-18T11:20:15.112Z,0.60
2019-02-18T11:22:22.262Z,0.43
2019-02-18T11:24:29.514Z,0.30
2019-02-18T11:26:36.700Z,0.30
2019-02-18T11:28:44.073Z,0.40
2019-02-18T11:30:51.363Z,0.30
2019-02-18T11:32:58.741Z,0.33
2019-02-18T11:35:06.195Z,0.30
2019-02-18T11:37:13.871Z,0.40
2019-02-18T11:39:21.329Z,0.40
2019-02-18T11:41:28.782Z,0.40
2019-02-18T11:43:36.561Z,0.30
2019-02-18T11:45:43.644Z,0.37
2019-02-18T11:47:51.012Z,0.40
2019-02-18T11:49:58.126Z,0.30
2019-02-18T11:52:05.538Z,0.50
2019-02-18T11:54:12.909Z,0.40
2019-02-18T11:56:20.030Z,0.43
2019-02-18T11:58:27.299Z,0.33
2019-02-18T12:00:34.653Z,0.30
2019-02-18T12:02:42.588Z,0.30
2019-02-18T12:04:50.567Z,0.40
2019-02-18T12:06:58.241Z,0.30
2019-02-18T12:09:06.324Z,0.40
2019-02-18T12:11:13.749Z,0.40
2019-02-18T12:13:21.661Z,0.40
2019-02-18T12:15:29.880Z,0.40
2019-02-18T12:17:37.868Z,0.40
2019-02-18T12:19:45.494Z,0.33
2019-02-18T12:21:53.333Z,0.20
2019-02-18T12:24:00.560Z,0.33
2019-02-18T12:26:08.032Z,0.30
2019-02-18T12:28:15.620Z,0.30
2019-02-18T12:30:23.310Z,0.30
2019-02-18T12:32:30.628Z,0.30
2019-02-18T12:34:38.452Z,0.30
2019-02-18T12:36:47.358Z,0.30
2019-02-18T12:38:55.736Z,0.30
2019-02-18T12:41:04.735Z,0.30
2019-02-18T12:43:11.906Z,0.20
2019-02-18T12:45:19.805Z,0.47
2019-02-18T12:47:27.819Z,0.27
2019-02-18T12:49:35.041Z,0.30
2019-02-18T12:51:42.854Z,0.30
2019-02-18T12:53:50.474Z,0.20
2019-02-18T12:55:58.712Z,0.30
2019-02-18T12:58:06.665Z,0.33
2019-02-18T13:00:14.519Z,0.40
2019-02-18T13:02:22.031Z,0.30
2019-02-18T13:04:29.174Z,0.20
2019-02-18T13:06:38.929Z,0.27
2019-02-18T13:08:46.256Z,0.37
2019-02-18T13:10:54.804Z,0.30
2019-02-18T13:13:02.647Z,0.20
2019-02-18T13:15:11.707Z,0.30
2019-02-18T13:17:19.145Z,0.20
2019-02-18T13:19:26.853Z,0.20
2019-02-18T13:21:34.153Z,0.30
2019-02-18T13:23:45.279Z,0.30
2019-02-18T13:25:52.733Z,0.30
2019-02-18T13:28:08.205Z,0.20
2019-02-18T13:30:12.003Z,0.30
2019-02-18T13:32:19.114Z,0.20
2019-02-18T13:34:26.532Z,0.30
2019-02-18T13:36:33.816Z,0.20
2019-02-18T13:38:41.214Z,0.30
2019-02-18T13:40:48.360Z,0.20
2019-02-18T13:42:56.031Z,0.30
2019-02-18T13:45:03.458Z,0.20
2019-02-18T13:47:10.948Z,0.23
2019-02-18T13:49:18.543Z,0.30
2019-02-18T13:51:25.842Z,0.30
2019-02-18T13:53:34.738Z,0.30
2019-02-18T13:55:41.832Z,0.20
2019-02-18T13:57:49.769Z,0.57
2019-02-18T13:59:57.084Z,0.78
2019-02-18T14:02:04.300Z,0.60
2019-02-18T14:04:11.910Z,0.80
2019-02-18T14:06:20.126Z,0.63
2019-02-18T14:08:28.447Z,0.60
2019-02-18T14:10:36.233Z,0.73
2019-02-18T14:12:44.510Z,0.60
2019-02-18T14:14:52.309Z,1.17
2019-02-18T14:16:59.611Z,0.80
2019-02-18T14:19:07.112Z,0.70
2019-02-18T14:21:14.558Z,1.10
2019-02-18T14:23:21.890Z,1.10
2019-02-18T14:25:29.877Z,1.63
2019-02-18T14:27:39.320Z,1.03
2019-02-18T14:29:48.397Z,0.93
2019-02-18T14:31:55.527Z,0.90
2019-02-18T14:34:03.099Z,1.07
2019-02-18T14:36:10.305Z,0.80
2019-02-18T14:38:19.416Z,1.13
2019-02-18T14:40:28.058Z,0.77
2019-02-18T14:42:36.493Z,0.77
2019-02-18T14:44:45.273Z,0.90
2019-02-18T14:46:54.515Z,1.07
2019-02-18T14:49:02.937Z,0.87
2019-02-18T14:51:11.573Z,0.90
2019-02-18T14:53:22.406Z,0.80
2019-02-18T14:55:30.177Z,0.80
2019-02-18T14:57:38.070Z,0.97
2019-02-18T14:59:46.239Z,0.67
2019-02-18T15:01:54.436Z,0.80
2019-02-18T15:04:02.256Z,0.80
2019-02-18T15:06:10.027Z,0.70
2019-02-18T15:08:17.441Z,0.60
2019-02-18T15:10:25.360Z,0.80
2019-02-18T15:12:34.322Z,0.70
2019-02-18T15:14:43.991Z,0.73
2019-02-18T15:16:52.930Z,0.50
2019-02-18T15:19:00.355Z,0.60
2019-02-18T15:21:07.821Z,0.60
2019-02-18T15:23:17.066Z,0.50
2019-02-18T15:25:25.585Z,0.50
2019-02-18T15:27:52.850Z,0.70
2019-02-18T15:30:02.394Z,0.70
2019-02-18T15:32:09.802Z,0.80
2019-02-18T15:34:17.332Z,0.50
2019-02-18T15:36:25.235Z,0.70
2019-02-18T15:38:33.486Z,0.50
2019-02-18T15:40:40.894Z,0.53
2019-02-18T15:42:48.808Z,0.60
2019-02-18T15:44:57.298Z,0.83
2019-02-18T15:47:05.117Z,0.63
2019-02-18T15:49:12.963Z,0.40
2019-02-18T15:51:20.802Z,0.47
2019-02-18T15:53:28.621Z,0.40
2019-02-18T15:55:36.142Z,0.67
2019-02-18T15:57:43.419Z,0.50
2019-02-18T15:59:50.736Z,0.50
2019-02-18T16:03:39.605Z,0.43
2019-02-18T16:04:33.286Z,0.40
2019-02-18T16:06:43.410Z,0.50
2019-02-18T16:08:51.381Z,0.50
2019-02-18T16:11:03.027Z,0.40
2019-02-18T16:13:15.720Z,0.60
2019-02-18T16:15:31.412Z,0.40
2019-02-18T16:17:38.836Z,0.43
2019-02-18T16:19:50.236Z,0.40
2019-02-18T16:22:03.213Z,0.47
2019-02-18T16:24:19.626Z,0.43
2019-02-18T16:26:22.750Z,0.60
2019-02-18T16:28:41.060Z,0.57
2019-02-18T16:31:10.460Z,0.70
2019-02-18T16:33:45.914Z,0.50
2019-02-18T16:36:00.196Z,0.40
2019-02-18T16:38:12.636Z,0.50
2019-02-18T16:40:27.392Z,0.53
2019-02-18T16:42:40.768Z,0.40
2019-02-18T16:44:54.823Z,0.50
2019-02-18T16:47:10.172Z,0.37
2019-02-18T16:49:24.441Z,0.57
2019-02-18T16:51:33.269Z,0.50
2019-02-18T16:53:53.642Z,0.40
2019-02-18T16:56:00.999Z,0.40
2019-02-18T16:58:15.802Z,0.50
2019-02-18T17:00:30.809Z,0.60
2019-02-18T17:02:55.328Z,0.50
2019-02-18T17:05:28.575Z,0.40
2019-02-18T17:07:36.721Z,0.40
2019-02-18T17:10:00.388Z,0.40
2019-02-18T17:12:08.213Z,0.30
2019-02-18T17:14:16.422Z,0.60
2019-02-18T17:16:39.771Z,0.47
2019-02-18T17:18:55.127Z,0.30
2019-02-18T17:21:15.131Z,0.40
2019-02-18T17:23:28.990Z,0.50
2019-02-18T17:25:37.333Z,0.50
2019-02-18T17:27:50.798Z,0.50
2019-02-18T17:30:07.434Z,0.50
2019-02-18T17:32:16.859Z,0.60
2019-02-18T17:34:24.931Z,0.70
2019-02-18T17:36:56.558Z,0.50
2019-02-18T17:38:58.283Z,0.50
2019-02-18T17:41:19.467Z,0.50
2019-02-18T17:43:38.196Z,0.40
2019-02-18T17:45:46.198Z,0.40
2019-02-18T17:48:01.153Z,0.50
2019-02-18T17:50:09.370Z,0.43
2019-02-18T17:52:19.981Z,0.60
2019-02-18T17:54:32.587Z,0.60
2019-02-18T17:56:39.904Z,0.60
2019-02-18T17:58:53.262Z,0.50
2019-02-18T18:01:09.405Z,0.50
2019-02-18T18:03:21.803Z,0.60
2019-02-18T18:05:51.583Z,0.50
2019-02-18T18:08:11.616Z,0.60
2019-02-18T18:10:27.435Z,0.50
2019-02-18T18:12:39.963Z,0.40
2019-02-18T18:14:51.540Z,0.40
2019-02-18T18:17:00.163Z,0.40
2019-02-18T18:19:09.530Z,0.40
2019-02-18T18:21:21.224Z,0.40
2019-02-18T18:23:32.286Z,0.40
2019-02-18T18:26:03.886Z,0.50
2019-02-18T18:28:15.577Z,0.40
2019-02-18T18:30:54.321Z,0.50
2019-02-18T18:33:14.686Z,0.40
2019-02-18T18:35:30.411Z,0.67
2019-02-18T18:37:45.938Z,0.50
2019-02-18T18:40:02.786Z,0.40
2019-02-18T18:42:30.978Z,0.50
2019-02-18T18:44:56.976Z,0.60
2019-02-18T18:47:16.090Z,0.40
2019-02-18T18:49:44.048Z,0.70
2019-02-18T18:51:55.087Z,0.50
2019-02-18T18:54:03.213Z,0.40
2019-02-18T18:56:27.176Z,0.40
2019-02-18T18:58:34.755Z,0.60
2019-02-18T19:01:06.386Z,0.60
2019-02-18T19:03:55.721Z,0.67
2019-02-18T19:06:51.721Z,0.60
2019-02-18T19:09:02.799Z,0.50
2019-02-18T19:11:10.684Z,0.60
2019-02-18T19:13:53.640Z,0.50
2019-02-18T19:16:13.589Z,0.60
2019-02-18T19:18:36.458Z,0.70
2019-02-18T19:20:52.663Z,0.43
2019-02-18T19:23:07.269Z,0.60
2019-02-18T19:25:15.151Z,0.40
2019-02-18T19:27:28.347Z,0.50
2019-02-18T19:29:39.656Z,0.50
2019-02-18T19:31:49.632Z,0.50
2019-02-18T19:33:59.825Z,0.40
2019-02-18T19:36:13.368Z,0.50
2019-02-18T19:38:24.151Z,0.60
2019-02-18T19:40:35.351Z,0.50
2019-02-18T19:42:53.498Z,0.53
2019-02-18T19:45:03.605Z,0.50
2019-02-18T19:47:14.426Z,0.40
2019-02-18T19:49:32.105Z,0.47
2019-02-18T19:51:44.165Z,0.60
2019-02-18T19:54:00.528Z,0.60
2019-02-18T19:56:12.765Z,0.50
2019-02-18T19:58:27.581Z,0.60
2019-02-18T20:00:43.513Z,0.70
2019-02-18T20:03:00.173Z,0.60
2019-02-18T20:05:23.394Z,0.67
2019-02-18T20:07:23.958Z,0.50
2019-02-18T20:09:40.331Z,0.63
2019-02-18T20:11:53.820Z,0.87
2019-02-18T20:14:01.954Z,0.50
2019-02-18T20:16:17.858Z,0.40
2019-02-18T20:18:34.324Z,0.80
2019-02-18T20:20:42.757Z,0.70
2019-02-18T20:22:57.018Z,0.70
2019-02-18T20:25:07.587Z,0.87
2019-02-18T20:27:19.188Z,0.40
2019-02-18T20:29:37.375Z,0.70
2019-02-18T20:31:50.427Z,0.50
2019-02-18T20:34:02.224Z,0.60
2019-02-18T20:36:15.336Z,0.63
2019-02-18T20:38:29.375Z,1.23
2019-02-18T20:40:42.393Z,0.70
2019-02-18T20:42:58.786Z,0.70
2019-02-18T20:45:08.241Z,0.70
2019-02-18T20:47:21.469Z,0.67
2019-02-18T20:49:31.946Z,0.70
2019-02-18T20:51:47.165Z,0.60
2019-02-18T20:53:57.008Z,1.00
2019-02-18T20:56:06.070Z,0.90
2019-02-18T20:58:17.191Z,0.60
2019-02-18T21:00:36.581Z,0.60
2019-02-18T21:03:00.888Z,0.50
2019-02-18T21:05:15.276Z,0.87
2019-02-18T21:07:31.208Z,0.57
2019-02-18T21:09:39.448Z,0.60
2019-02-18T21:11:52.094Z,0.80
2019-02-18T21:14:00.091Z,0.63
2019-02-18T21:16:15.515Z,0.90
2019-02-18T21:18:26.396Z,0.90
2019-02-18T21:20:37.309Z,0.90
2019-02-18T21:22:53.421Z,0.70
2019-02-18T21:25:01.780Z,0.60
2019-02-18T21:27:22.361Z,0.50
2019-02-18T21:29:39.827Z,0.60
2019-02-18T21:31:49.369Z,0.57
2019-02-18T21:34:01.285Z,0.70
2019-02-18T21:36:09.415Z,0.70
2019-02-18T21:38:18.260Z,0.70
2019-02-18T21:40:26.300Z,0.70
2019-02-18T21:42:34.973Z,0.93
2019-02-18T21:44:44.030Z,0.80
2019-02-18T21:46:53.578Z,0.80
2019-02-18T21:49:15.088Z,0.90
2019-02-18T21:51:23.810Z,1.03
2019-02-18T21:53:34.247Z,0.90
2019-02-18T21:56:03.854Z,0.80
2019-02-18T21:58:14.757Z,0.80
2019-02-18T22:00:24.507Z,0.83
2019-02-18T22:02:44.603Z,0.80
2019-02-18T22:04:52.107Z,0.80
2019-02-18T22:06:58.949Z,0.80
2019-02-18T22:09:07.556Z,0.80
2019-02-18T22:11:16.294Z,0.80
2019-02-18T22:13:34.104Z,0.80
2019-02-18T22:15:45.426Z,0.60
2019-02-18T22:17:57.551Z,0.70
2019-02-18T22:20:07.965Z,0.40
2019-02-18T22:22:18.523Z,0.80
2019-02-18T22:24:25.819Z,1.03
2019-02-18T22:26:36.936Z,0.70
2019-02-18T22:28:50.515Z,0.80
2019-02-18T22:31:01.068Z,0.80
2019-02-18T22:33:10.978Z,0.90
2019-02-18T22:35:21.132Z,0.90
2019-02-18T22:37:32.491Z,0.87
2019-02-18T22:39:41.166Z,0.77
2019-02-18T22:41:51.648Z,0.80
2019-02-18T22:44:01.257Z,0.60
2019-02-18T22:46:13.349Z,1.00
2019-02-18T22:48:25.520Z,1.00
2019-02-18T22:50:34.881Z,0.70
2019-02-18T22:52:45.815Z,0.90
2019-02-18T22:54:54.214Z,0.70
2019-02-18T22:57:05.341Z,0.90
2019-02-18T22:59:14.357Z,0.60
2019-02-18T23:01:25.663Z,0.70
2019-02-18T23:03:36.762Z,0.90
2019-02-18T23:05:46.143Z,0.93
2019-02-18T23:07:56.492Z,0.90
2019-02-18T23:10:05.428Z,0.70
2019-02-18T23:12:15.469Z,0.80
2019-02-18T23:14:22.773Z,0.60
2019-02-18T23:16:40.047Z,0.90
2019-02-18T23:18:51.277Z,0.63
2019-02-18T23:21:02.637Z,0.80
2019-02-18T23:23:12.518Z,0.70
2019-02-18T23:25:19.781Z,0.53
2019-02-18T23:27:28.778Z,0.70
2019-02-18T23:29:40.705Z,0.43
2019-02-18T23:31:53.801Z,0.70
2019-02-18T23:34:02.150Z,0.70
2019-02-18T23:36:11.523Z,0.70
2019-02-18T23:38:20.775Z,0.57
2019-02-18T23:40:30.351Z,0.70
2019-02-18T23:42:39.769Z,0.60
2019-02-18T23:44:47.444Z,0.70
2019-02-18T23:46:55.029Z,0.97
2019-02-18T23:49:02.378Z,0.70
2019-02-18T23:51:09.723Z,0.70
2019-02-18T23:53:19.492Z,0.57
2019-02-18T23:55:27.189Z,0.60
2019-02-18T23:57:36.569Z,0.80
2019-02-18T23:59:47.642Z,0.60
